Kennebec, South Dakota
Current Conditions -  °F | °C
As of 3:55 AM on Monday 22 Dec 2014 (Local Time) from K9V9 Reporting Station
Drizzle Drizzle  
Wind Chill: 25°   Ceiling: 1000
Heat Index: 33°   Visibility: 10mi
Dew Point: 31°   Wind: 8mph
Humidity: 94%   Direction: 310°NW
Pressure: 29.44"   Gusts: NA
Location:  43.9°N, 99.86°W
Report Text: K9V9 220955Z AUTO 31007KT 10SM DZ OVC010 00/M01 A2944 RMK AO2 T00031006
Loading
Personal Weather Stations






























Interactive Weather Map New forecast layout! Learn more

10-Day Weather Forecast

Advertisements
Track Severe Weather on mobile